createdAt,value
2022-12-31T00:00:15.339Z,100243.41
2022-12-31T00:02:42.446Z,100241.97
2022-12-31T00:05:10.053Z,100241.25
2022-12-31T00:10:04.705Z,100235.84
2022-12-31T00:12:31.743Z,100244.59
2022-12-31T00:14:58.742Z,100222.44
2022-12-31T00:17:25.826Z,100223.38
2022-12-31T00:19:52.821Z,100221.91
2022-12-31T00:22:19.824Z,100204.56
2022-12-31T00:24:47.201Z,100208.41
2022-12-31T00:27:14.230Z,100208.19
2022-12-31T00:29:41.285Z,100207.66
2022-12-31T00:32:08.509Z,100215.56
2022-12-31T00:34:35.563Z,100203.22
2022-12-31T00:37:02.629Z,100204.34
2022-12-31T00:39:29.737Z,100200.03
2022-12-31T00:41:56.776Z,100195.44
2022-12-31T00:44:23.865Z,100187.91
2022-12-31T00:46:50.883Z,100189.31
2022-12-31T00:49:18.000Z,100194.50
2022-12-31T00:51:46.786Z,100186.94
2022-12-31T00:54:14.154Z,100188.25
2022-12-31T00:56:41.293Z,100181.38
2022-12-31T00:59:08.498Z,100184.66
2022-12-31T01:01:38.837Z,100180.63
2022-12-31T01:04:19.784Z,100163.94
2022-12-31T01:06:47.527Z,100157.59
2022-12-31T01:09:16.987Z,100158.47
2022-12-31T01:11:44.779Z,100144.97
2022-12-31T01:14:19.034Z,100143.28
2022-12-31T01:16:50.219Z,100138.19
2022-12-31T01:19:29.246Z,100132.22
2022-12-31T01:21:57.232Z,100131.41
2022-12-31T01:24:24.702Z,100137.22
2022-12-31T01:26:51.955Z,100149.50
2022-12-31T01:29:19.450Z,100140.88
2022-12-31T01:31:46.885Z,100146.78
2022-12-31T01:34:13.995Z,100138.84
2022-12-31T01:36:41.434Z,100140.66
2022-12-31T01:39:09.619Z,100136.16
2022-12-31T01:41:43.731Z,100123.06
2022-12-31T01:44:13.391Z,100129.13
2022-12-31T01:47:00.654Z,100130.19
2022-12-31T01:49:42.963Z,100121.28
2022-12-31T01:52:34.765Z,100108.19
2022-12-31T01:55:51.222Z,100098.81
2022-12-31T01:58:24.195Z,100106.84
2022-12-31T02:00:53.260Z,100087.28
2022-12-31T02:03:23.613Z,100103.47
2022-12-31T02:06:03.513Z,100084.31
2022-12-31T02:08:31.123Z,100092.00
2022-12-31T02:10:58.120Z,100100.91
2022-12-31T02:13:25.338Z,100079.97
2022-12-31T02:16:19.364Z,100076.63
2022-12-31T02:19:24.375Z,100076.75
2022-12-31T02:22:33.374Z,100063.00
2022-12-31T02:25:45.659Z,100046.44
2022-12-31T02:28:53.292Z,100045.69
2022-12-31T02:31:45.377Z,100043.00
2022-12-31T02:34:21.833Z,100034.28
2022-12-31T02:36:53.422Z,100035.81
2022-12-31T02:39:21.575Z,100031.28
2022-12-31T02:41:50.460Z,100027.97
2022-12-31T02:44:29.266Z,100035.00
2022-12-31T02:47:42.545Z,100055.03
2022-12-31T02:50:29.573Z,100052.63
2022-12-31T02:53:50.646Z,100058.72
2022-12-31T02:56:39.166Z,100053.50
2022-12-31T02:59:53.965Z,100038.94
2022-12-31T03:02:23.962Z,100027.72
2022-12-31T03:04:57.212Z,100032.97
2022-12-31T03:07:32.000Z,100040.84
2022-12-31T03:10:01.124Z,100054.22
2022-12-31T03:12:47.871Z,100053.47
2022-12-31T03:15:26.448Z,100054.38
2022-12-31T03:18:09.932Z,100063.13
2022-12-31T03:20:59.747Z,100052.91
2022-12-31T03:23:50.278Z,100052.16
2022-12-31T03:26:17.313Z,100044.28
2022-12-31T03:28:47.848Z,100048.31
2022-12-31T03:31:16.307Z,100047.59
2022-12-31T03:33:43.527Z,100040.38
2022-12-31T03:36:14.789Z,100058.03
2022-12-31T03:38:42.176Z,100058.94
2022-12-31T03:41:11.710Z,100063.41
2022-12-31T03:43:38.856Z,100067.84
2022-12-31T03:46:06.518Z,100065.22
2022-12-31T03:48:33.580Z,100064.59
2022-12-31T03:51:00.732Z,100068.19
2022-12-31T03:53:28.428Z,100067.34
2022-12-31T03:55:55.607Z,100058.94
2022-12-31T03:58:22.935Z,100051.06
2022-12-31T04:00:50.785Z,100058.22
2022-12-31T04:03:18.165Z,100058.06
2022-12-31T04:05:45.190Z,100053.91
2022-12-31T04:08:12.633Z,100070.88
2022-12-31T04:10:39.716Z,100066.34
2022-12-31T04:13:06.764Z,100073.66
2022-12-31T04:15:33.801Z,100071.88
2022-12-31T04:18:00.820Z,100063.66
2022-12-31T04:20:27.799Z,100061.03
2022-12-31T04:22:54.821Z,100050.69
2022-12-31T04:25:21.896Z,100050.22
2022-12-31T04:27:48.940Z,100058.34
2022-12-31T04:30:16.128Z,100052.47
2022-12-31T04:32:43.194Z,100046.03
2022-12-31T04:35:11.633Z,100039.19
2022-12-31T04:37:38.964Z,100038.63
2022-12-31T04:40:08.002Z,100028.13
2022-12-31T04:42:36.030Z,100025.31
2022-12-31T04:45:03.990Z,100033.53
2022-12-31T04:47:31.110Z,100038.78
2022-12-31T04:49:58.120Z,100032.91
2022-12-31T04:52:25.158Z,100032.69
2022-12-31T04:54:52.224Z,100034.69
2022-12-31T04:57:19.246Z,100042.69
2022-12-31T04:59:46.409Z,100047.72
2022-12-31T05:02:13.598Z,100054.78
2022-12-31T05:04:40.832Z,100050.25
2022-12-31T05:07:07.874Z,100051.53
2022-12-31T05:09:34.908Z,100055.69
2022-12-31T05:12:02.066Z,100057.75
2022-12-31T05:14:29.197Z,100047.69
2022-12-31T05:16:56.369Z,100047.22
2022-12-31T05:19:23.384Z,100040.41
2022-12-31T05:22:10.360Z,100042.19
2022-12-31T05:24:37.382Z,100044.78
2022-12-31T05:27:04.477Z,100054.38
2022-12-31T05:29:31.571Z,100056.13
2022-12-31T05:31:58.637Z,100056.16
2022-12-31T05:34:25.753Z,100055.72
2022-12-31T05:36:53.084Z,100057.38
2022-12-31T05:39:20.098Z,100045.22
2022-12-31T05:41:47.096Z,100046.81
2022-12-31T05:44:14.259Z,100049.44
2022-12-31T05:46:41.322Z,100048.47
2022-12-31T05:49:08.382Z,100052.38
2022-12-31T05:51:35.384Z,100046.38
2022-12-31T05:54:02.413Z,100034.72
2022-12-31T05:56:29.505Z,100033.47
2022-12-31T05:58:56.679Z,100027.59
2022-12-31T06:01:23.780Z,100036.72
2022-12-31T06:03:50.997Z,100034.81
2022-12-31T06:06:18.076Z,100032.09
2022-12-31T06:08:48.953Z,100040.91
2022-12-31T06:11:16.462Z,100041.00
2022-12-31T06:13:44.388Z,100035.28
2022-12-31T06:16:11.637Z,100039.81
2022-12-31T06:18:38.805Z,100033.75
2022-12-31T06:21:06.085Z,100033.56
2022-12-31T06:23:33.107Z,100032.31
2022-12-31T06:26:05.330Z,100028.69
2022-12-31T06:28:32.750Z,100032.56
2022-12-31T06:31:12.437Z,100039.63
2022-12-31T06:33:39.659Z,100033.94
2022-12-31T06:36:11.436Z,100050.50
2022-12-31T06:38:43.498Z,100054.09
2022-12-31T06:41:13.611Z,100052.50
2022-12-31T06:43:42.197Z,100054.13
2022-12-31T06:46:13.405Z,100043.84
2022-12-31T06:48:42.983Z,100035.19
2022-12-31T06:51:17.337Z,100038.66
2022-12-31T06:53:47.273Z,100043.78
2022-12-31T06:56:33.180Z,100041.03
2022-12-31T06:59:01.939Z,100050.72
2022-12-31T07:01:46.913Z,100058.97
2022-12-31T07:04:34.890Z,100060.75
2022-12-31T07:07:32.881Z,100059.81
2022-12-31T07:10:30.006Z,100064.31
2022-12-31T07:13:23.885Z,100066.31
2022-12-31T07:16:19.771Z,100080.66
2022-12-31T07:19:06.764Z,100085.94
2022-12-31T07:21:40.448Z,100083.25
2022-12-31T07:24:10.142Z,100086.97
2022-12-31T07:27:06.384Z,100083.44
2022-12-31T07:30:14.514Z,100093.06
2022-12-31T07:33:06.112Z,100095.13
2022-12-31T07:35:56.493Z,100092.94
2022-12-31T07:38:57.131Z,100107.28
2022-12-31T07:42:05.598Z,100114.19
2022-12-31T07:44:49.173Z,100112.38
2022-12-31T07:47:28.619Z,100101.97
2022-12-31T07:49:57.736Z,100102.88
2022-12-31T07:52:25.777Z,100109.50
2022-12-31T07:54:52.814Z,100109.00
2022-12-31T07:57:21.451Z,100098.25
2022-12-31T08:00:31.787Z,100091.25
2022-12-31T08:03:36.553Z,100106.50
2022-12-31T08:06:22.974Z,100099.63
2022-12-31T08:09:05.565Z,100105.41
2022-12-31T08:11:48.177Z,100112.59
2022-12-31T08:14:16.089Z,100113.53
2022-12-31T08:16:43.744Z,100112.78
2022-12-31T08:19:30.720Z,100111.78
2022-12-31T08:22:18.755Z,100110.00
2022-12-31T08:25:25.441Z,100108.88
2022-12-31T08:28:35.283Z,100112.78
2022-12-31T08:31:15.988Z,100104.94
2022-12-31T08:34:05.511Z,100117.75
2022-12-31T08:36:52.598Z,100126.94
2022-12-31T08:39:52.936Z,100129.28
2022-12-31T08:43:06.213Z,100134.31
2022-12-31T08:45:51.146Z,100130.75
2022-12-31T08:48:38.690Z,100131.88
2022-12-31T08:51:10.010Z,100133.84
2022-12-31T08:53:37.491Z,100144.31
2022-12-31T08:56:18.409Z,100142.88
2022-12-31T08:59:03.017Z,100141.16
2022-12-31T09:01:54.325Z,100135.91
2022-12-31T09:05:15.461Z,100134.53
2022-12-31T09:07:59.585Z,100123.06
2022-12-31T09:10:36.557Z,100130.09
2022-12-31T09:13:22.059Z,100136.28
2022-12-31T09:15:58.863Z,100130.16
2022-12-31T09:18:32.875Z,100127.13
2022-12-31T09:21:00.567Z,100119.16
2022-12-31T09:23:27.994Z,100109.22
2022-12-31T09:26:33.480Z,100111.97
2022-12-31T09:29:26.427Z,100098.72
2022-12-31T09:32:07.090Z,100090.28
2022-12-31T09:35:30.010Z,100076.19
2022-12-31T09:38:07.991Z,100079.22
2022-12-31T09:41:06.083Z,100092.06
2022-12-31T09:44:06.819Z,100102.28
2022-12-31T09:47:14.645Z,100081.19
2022-12-31T09:50:28.647Z,100094.69
2022-12-31T09:53:17.195Z,100094.94
2022-12-31T09:55:55.344Z,100090.59
2022-12-31T09:58:25.058Z,100077.56
2022-12-31T10:01:35.701Z,100083.13
2022-12-31T10:04:26.070Z,100079.22
2022-12-31T10:07:25.096Z,100073.53
2022-12-31T10:10:13.234Z,100075.38
2022-12-31T10:12:55.968Z,100063.00
2022-12-31T10:16:14.092Z,100067.19
2022-12-31T10:19:31.536Z,100075.00
2022-12-31T10:22:16.066Z,100069.41
2022-12-31T10:25:07.275Z,100060.69
2022-12-31T10:28:00.268Z,100051.22
2022-12-31T10:30:40.587Z,100056.84
2022-12-31T10:33:15.552Z,100054.06
2022-12-31T10:36:05.238Z,100062.06
2022-12-31T10:38:46.977Z,100054.81
2022-12-31T10:41:38.661Z,100052.66
2022-12-31T10:44:17.146Z,100057.59
2022-12-31T10:47:24.152Z,100029.69
2022-12-31T10:50:18.384Z,100032.16
2022-12-31T10:53:28.386Z,100024.69
2022-12-31T10:56:39.283Z,100007.72
2022-12-31T10:59:59.937Z,100005.84
2022-12-31T11:03:06.758Z,100014.75
2022-12-31T11:06:07.425Z,100005.63
2022-12-31T11:09:05.394Z,99986.28
2022-12-31T11:12:02.446Z,99989.72
2022-12-31T11:14:38.619Z,99987.31
2022-12-31T11:17:34.452Z,99996.84
2022-12-31T11:21:00.391Z,99985.22
2022-12-31T11:23:33.364Z,99980.56
2022-12-31T11:26:39.442Z,99998.88
2022-12-31T11:29:25.080Z,100007.44
2022-12-31T11:32:30.166Z,100000.91
2022-12-31T11:35:13.543Z,99987.47
2022-12-31T11:38:04.401Z,99997.19
2022-12-31T11:41:01.880Z,99987.66
2022-12-31T11:44:30.256Z,99975.66
2022-12-31T11:47:16.433Z,99973.06
2022-12-31T11:50:10.524Z,99979.38
2022-12-31T11:52:54.390Z,99984.63
2022-12-31T11:55:37.677Z,99972.09
2022-12-31T11:58:31.573Z,99979.75
2022-12-31T12:01:16.251Z,99961.22
2022-12-31T12:03:44.841Z,99963.94
2022-12-31T12:06:15.001Z,99975.25
2022-12-31T12:08:44.316Z,99974.31
2022-12-31T12:11:25.340Z,99971.66
2022-12-31T12:13:52.347Z,99965.72
2022-12-31T12:16:22.641Z,99962.47
2022-12-31T12:19:17.454Z,99963.31
2022-12-31T12:21:49.443Z,99953.59
2022-12-31T12:24:29.376Z,99965.13
2022-12-31T12:26:57.874Z,99965.13
2022-12-31T12:29:35.113Z,99974.38
2022-12-31T12:32:28.375Z,99957.69
2022-12-31T12:34:55.392Z,99953.94
2022-12-31T12:37:25.071Z,99942.50
2022-12-31T12:40:29.825Z,99939.56
2022-12-31T12:42:58.899Z,99940.41
2022-12-31T12:45:46.358Z,99956.38
2022-12-31T12:48:47.083Z,99941.94
2022-12-31T12:51:49.007Z,99923.38
2022-12-31T12:54:59.611Z,99926.06
2022-12-31T12:58:03.988Z,99926.91
2022-12-31T13:01:16.175Z,99936.41
2022-12-31T13:04:35.184Z,99937.50
2022-12-31T13:07:45.824Z,99928.38
2022-12-31T13:10:36.757Z,99925.00
2022-12-31T13:13:43.522Z,99925.63
2022-12-31T13:16:39.859Z,99913.25
2022-12-31T13:19:34.346Z,99927.69
2022-12-31T13:22:25.172Z,99922.38
2022-12-31T13:25:19.093Z,99910.28
2022-12-31T13:27:51.841Z,99915.69
2022-12-31T13:30:21.892Z,99912.66
2022-12-31T13:32:58.309Z,99921.34
2022-12-31T13:35:54.023Z,99917.00
2022-12-31T13:38:42.318Z,99914.53
2022-12-31T13:41:30.452Z,99909.13
2022-12-31T13:44:08.771Z,99915.31
2022-12-31T13:46:47.677Z,99925.06
2022-12-31T13:49:23.670Z,99919.91
2022-12-31T13:51:59.045Z,99923.09
2022-12-31T13:55:01.934Z,99930.19
2022-12-31T13:57:54.979Z,99932.72
2022-12-31T14:00:34.666Z,99926.00
2022-12-31T14:03:14.042Z,99929.16
2022-12-31T14:05:57.752Z,99923.97
2022-12-31T14:08:24.835Z,99917.88
2022-12-31T14:11:07.032Z,99936.31
2022-12-31T14:14:08.599Z,99938.38
2022-12-31T14:16:55.492Z,99946.91
2022-12-31T14:20:18.889Z,99952.41
2022-12-31T14:23:23.644Z,99959.31
2022-12-31T14:25:55.185Z,99956.81
2022-12-31T14:28:33.947Z,99956.75
2022-12-31T14:31:28.825Z,99966.31
2022-12-31T14:34:47.557Z,99966.22
2022-12-31T14:37:48.593Z,99955.72
2022-12-31T14:40:26.633Z,99959.38
2022-12-31T14:43:13.380Z,99953.50
2022-12-31T14:46:21.738Z,99959.91
2022-12-31T14:49:15.334Z,99968.63
2022-12-31T14:51:42.433Z,99964.00
2022-12-31T14:55:01.616Z,99954.50
2022-12-31T14:58:01.682Z,99969.88
2022-12-31T15:00:35.191Z,99968.88
2022-12-31T15:03:13.878Z,99968.16
2022-12-31T15:06:25.430Z,99961.22
2022-12-31T15:09:08.955Z,99956.44
2022-12-31T15:12:28.534Z,99952.94
2022-12-31T15:15:29.335Z,99954.44
2022-12-31T15:18:36.449Z,99951.03
2022-12-31T15:21:36.972Z,99943.00
2022-12-31T15:24:21.470Z,99952.03
2022-12-31T15:26:58.601Z,99955.25
2022-12-31T15:29:29.262Z,99945.28
2022-12-31T15:32:00.863Z,99953.03
2022-12-31T15:34:36.965Z,99945.91
2022-12-31T15:37:28.060Z,99932.78
2022-12-31T15:40:21.253Z,99942.53
2022-12-31T15:43:13.465Z,99960.91
2022-12-31T15:45:42.703Z,99947.00
2022-12-31T15:48:22.099Z,99939.94
2022-12-31T15:50:55.479Z,99940.63
2022-12-31T15:53:47.029Z,99939.84
2022-12-31T15:56:24.364Z,99941.88
2022-12-31T15:58:57.950Z,99942.03
2022-12-31T16:01:35.953Z,99929.66
2022-12-31T16:04:07.923Z,99945.44
2022-12-31T16:06:38.279Z,99940.31
2022-12-31T16:09:18.618Z,99952.94
2022-12-31T16:11:45.871Z,99954.66
2022-12-31T16:14:45.027Z,99961.47
2022-12-31T16:17:41.913Z,99965.03
2022-12-31T16:20:30.652Z,99961.59
2022-12-31T16:23:01.706Z,99976.81
2022-12-31T16:25:33.757Z,99982.97
2022-12-31T16:28:03.632Z,99979.25
2022-12-31T16:30:33.140Z,99970.31
2022-12-31T16:33:11.821Z,99971.03
2022-12-31T16:35:38.969Z,99977.44
2022-12-31T16:38:16.741Z,99988.28
2022-12-31T16:41:01.067Z,99980.16
2022-12-31T16:43:43.270Z,99965.97
2022-12-31T16:46:26.307Z,99971.03
2022-12-31T16:49:20.258Z,99961.47
2022-12-31T16:51:49.630Z,99963.38
2022-12-31T16:54:38.968Z,99976.88
2022-12-31T16:57:11.001Z,99963.34
2022-12-31T16:59:45.265Z,99966.75
2022-12-31T17:02:23.173Z,99966.66
2022-12-31T17:04:56.318Z,99967.56
2022-12-31T17:07:32.696Z,99980.69
2022-12-31T17:10:08.410Z,99969.63
2022-12-31T17:13:25.088Z,99973.88
2022-12-31T17:15:44.059Z,99968.50
2022-12-31T17:18:26.919Z,99980.25
2022-12-31T17:20:55.319Z,99977.97
2022-12-31T17:23:31.677Z,99973.53
2022-12-31T17:26:08.875Z,99978.66
2022-12-31T17:28:46.052Z,99990.28
2022-12-31T17:31:26.265Z,99986.00
2022-12-31T17:34:03.963Z,99978.13
2022-12-31T17:36:31.012Z,99982.56
2022-12-31T17:39:18.525Z,99995.81
2022-12-31T17:41:52.088Z,99995.81
2022-12-31T17:44:28.187Z,99994.75
2022-12-31T17:46:55.410Z,100003.09
2022-12-31T17:49:31.561Z,99988.91
2022-12-31T17:51:58.730Z,99998.81
2022-12-31T17:54:25.794Z,100010.78
2022-12-31T17:56:53.723Z,99998.75
2022-12-31T17:59:29.804Z,99997.81
2022-12-31T18:02:03.165Z,100002.34
2022-12-31T18:04:30.329Z,100005.91
2022-12-31T18:06:57.323Z,100015.88
2022-12-31T18:09:24.472Z,100009.50
2022-12-31T18:11:54.355Z,100005.13
2022-12-31T18:14:23.932Z,100005.06
2022-12-31T18:16:50.989Z,100022.53
2022-12-31T18:19:45.930Z,100021.13
2022-12-31T18:22:04.993Z,100009.69
2022-12-31T18:24:32.013Z,100010.50
2022-12-31T18:26:59.096Z,100007.84
2022-12-31T18:29:26.125Z,100012.56
2022-12-31T18:31:53.989Z,100004.53
2022-12-31T18:34:21.137Z,100009.94
2022-12-31T18:36:48.102Z,100017.72
2022-12-31T18:39:15.148Z,99991.19
2022-12-31T18:41:51.692Z,100019.53
2022-12-31T18:44:18.810Z,100011.75
2022-12-31T18:46:45.828Z,100011.75
2022-12-31T18:49:12.814Z,100014.47
2022-12-31T18:51:39.804Z,100001.28
2022-12-31T18:54:10.999Z,100007.41
2022-12-31T18:56:43.248Z,100009.22
2022-12-31T18:59:13.646Z,100010.16
2022-12-31T19:01:41.531Z,100015.47
2022-12-31T19:04:21.277Z,100020.03
2022-12-31T19:06:51.963Z,100027.09
2022-12-31T19:09:44.009Z,100033.41
2022-12-31T19:12:06.558Z,100036.13
2022-12-31T19:14:33.563Z,100039.56
2022-12-31T19:19:27.111Z,100032.47
2022-12-31T19:21:54.190Z,100039.50
2022-12-31T19:24:23.617Z,100035.91
2022-12-31T19:26:51.093Z,100037.66
2022-12-31T19:29:25.328Z,100040.59
2022-12-31T19:31:52.894Z,100028.06
2022-12-31T19:34:20.012Z,100043.00
2022-12-31T19:36:47.149Z,100053.50
2022-12-31T19:39:17.537Z,100057.16
2022-12-31T19:41:45.261Z,100058.94
2022-12-31T19:44:18.014Z,100049.81
2022-12-31T19:46:46.706Z,100053.50
2022-12-31T19:49:15.281Z,100040.88
2022-12-31T19:51:42.966Z,100035.78
2022-12-31T19:54:12.989Z,100042.91
2022-12-31T19:56:40.039Z,100046.59
2022-12-31T19:59:09.824Z,100037.47
2022-12-31T20:01:37.249Z,100048.25
2022-12-31T20:04:04.824Z,100042.16
2022-12-31T20:06:31.867Z,100051.16
2022-12-31T20:08:58.877Z,100038.63
2022-12-31T20:11:26.052Z,100037.78
2022-12-31T20:13:56.412Z,100046.28
2022-12-31T20:16:27.041Z,100057.22
2022-12-31T20:18:54.372Z,100046.78
2022-12-31T20:21:28.663Z,100043.13
2022-12-31T20:23:56.119Z,100031.06
2022-12-31T20:26:24.824Z,100034.06
2022-12-31T20:28:52.656Z,100030.53
2022-12-31T20:31:24.083Z,100030.34
2022-12-31T20:33:51.611Z,100040.22
2022-12-31T20:36:18.642Z,100042.22
2022-12-31T20:38:46.220Z,100041.03
2022-12-31T20:41:17.053Z,100048.78
2022-12-31T20:43:44.984Z,100068.16
2022-12-31T20:46:23.025Z,100063.63
2022-12-31T20:48:53.117Z,100054.81
2022-12-31T20:51:21.680Z,100056.69
2022-12-31T20:53:52.495Z,100052.31
2022-12-31T20:56:19.731Z,100054.03
2022-12-31T20:58:47.143Z,100048.44
2022-12-31T21:01:18.551Z,100055.38
2022-12-31T21:04:04.694Z,100074.31
2022-12-31T21:06:35.573Z,100062.78
2022-12-31T21:09:07.814Z,100053.44
2022-12-31T21:11:53.857Z,100062.41
2022-12-31T21:14:21.471Z,100050.28
2022-12-31T21:16:48.674Z,100058.28
2022-12-31T21:19:15.779Z,100059.75
2022-12-31T21:21:43.040Z,100057.88
2022-12-31T21:24:10.610Z,100057.41
2022-12-31T21:26:37.641Z,100059.84
2022-12-31T21:29:04.748Z,100068.41
2022-12-31T21:31:31.791Z,100072.09
2022-12-31T21:33:59.316Z,100067.63
2022-12-31T21:36:26.334Z,100070.19
2022-12-31T21:38:53.383Z,100057.53
2022-12-31T21:41:39.015Z,100059.28
2022-12-31T21:44:06.157Z,100063.28
2022-12-31T21:46:33.233Z,100064.25
2022-12-31T21:49:01.061Z,100050.84
2022-12-31T21:51:29.453Z,100065.63
2022-12-31T21:53:57.141Z,100063.09
2022-12-31T21:56:24.386Z,100052.41
2022-12-31T21:59:16.539Z,100053.59
2022-12-31T22:02:02.209Z,100058.88
2022-12-31T22:07:16.996Z,100059.59
2022-12-31T22:09:44.020Z,100055.91
2022-12-31T22:12:11.086Z,100057.81
2022-12-31T22:14:38.176Z,100063.66
2022-12-31T22:17:05.251Z,100070.66
2022-12-31T22:19:43.510Z,100064.47
2022-12-31T22:22:15.632Z,100061.63
2022-12-31T22:24:42.705Z,100060.38
2022-12-31T22:27:28.177Z,100057.66
2022-12-31T22:29:56.825Z,100050.75
2022-12-31T22:32:23.855Z,100048.34
2022-12-31T22:34:50.841Z,100047.25
2022-12-31T22:37:54.526Z,100042.56
2022-12-31T22:40:05.917Z,100035.75
2022-12-31T22:42:33.035Z,100034.84
2022-12-31T22:45:00.295Z,100040.16
2022-12-31T22:47:27.642Z,100048.25
2022-12-31T22:49:55.135Z,100067.84
2022-12-31T22:52:22.319Z,100072.78
2022-12-31T22:54:49.377Z,100063.69
2022-12-31T22:57:20.167Z,100051.78
2022-12-31T22:59:47.918Z,100054.25
2022-12-31T23:02:16.410Z,100053.72
2022-12-31T23:04:43.575Z,100052.09
2022-12-31T23:07:10.621Z,100038.03
2022-12-31T23:09:56.536Z,100047.03
2022-12-31T23:12:25.081Z,100065.69
2022-12-31T23:15:10.864Z,100065.72
2022-12-31T23:17:56.633Z,100061.19
2022-12-31T23:20:44.498Z,100067.19
2022-12-31T23:23:20.405Z,100062.97
2022-12-31T23:25:52.531Z,100055.75
2022-12-31T23:28:23.579Z,100053.78
2022-12-31T23:30:51.622Z,100053.63
2022-12-31T23:33:22.836Z,100065.03
2022-12-31T23:35:50.018Z,100053.38
2022-12-31T23:38:18.932Z,100046.22
2022-12-31T23:40:45.953Z,100059.47
2022-12-31T23:43:21.624Z,100064.78
2022-12-31T23:45:50.981Z,100063.13
2022-12-31T23:48:18.040Z,100053.31
2022-12-31T23:50:50.866Z,100050.72
2022-12-31T23:53:20.026Z,100032.94
2022-12-31T23:55:47.111Z,100046.06
2022-12-31T23:58:14.838Z,100041.63
